sensor_id;sensor_type;location;lat;lon;timestamp;pressure;altitude;pressure_sealevel;temperature;humidity
40285;BME280;25997;50.214;19.354;2023-04-08T00:01:56;97928.44;;;3.50;63.68
40285;BME280;25997;50.214;19.354;2023-04-08T00:04:58;97922.28;;;3.47;63.21
40285;BME280;25997;50.214;19.354;2023-04-08T00:08:01;97933.38;;;3.45;63.33
40285;BME280;25997;50.214;19.354;2023-04-08T00:11:03;97930.06;;;3.47;63.61
40285;BME280;25997;50.214;19.354;2023-04-08T00:14:07;97928.75;;;3.56;63.37
40285;BME280;25997;50.214;19.354;2023-04-08T00:17:10;97925.50;;;3.60;63.26
40285;BME280;25997;50.214;19.354;2023-04-08T00:20:12;97926.63;;;3.65;63.13
40285;BME280;25997;50.214;19.354;2023-04-08T00:23:15;97935.78;;;3.58;62.88
40285;BME280;25997;50.214;19.354;2023-04-08T00:26:18;97937.91;;;3.49;62.65
40285;BME280;25997;50.214;19.354;2023-04-08T00:29:22;97938.34;;;3.40;62.77
40285;BME280;25997;50.214;19.354;2023-04-08T00:32:25;97942.09;;;3.29;62.70
40285;BME280;25997;50.214;19.354;2023-04-08T00:35:28;97942.81;;;3.27;63.01
40285;BME280;25997;50.214;19.354;2023-04-08T00:38:30;97937.47;;;3.24;62.71
40285;BME280;25997;50.214;19.354;2023-04-08T00:41:33;97939.25;;;3.25;63.01
40285;BME280;25997;50.214;19.354;2023-04-08T00:44:37;97944.38;;;3.23;62.51
40285;BME280;25997;50.214;19.354;2023-04-08T00:47:40;97951.59;;;3.13;62.51
40285;BME280;25997;50.214;19.354;2023-04-08T00:50:43;97950.13;;;3.02;62.56
40285;BME280;25997;50.214;19.354;2023-04-08T00:53:47;97962.66;;;2.94;62.68
40285;BME280;25997;50.214;19.354;2023-04-08T00:56:49;97956.25;;;2.88;62.88
40285;BME280;25997;50.214;19.354;2023-04-08T00:59:53;97958.06;;;2.89;62.78
40285;BME280;25997;50.214;19.354;2023-04-08T01:03:01;97957.78;;;2.84;62.67
40285;BME280;25997;50.214;19.354;2023-04-08T01:06:11;97956.69;;;2.81;62.67
40285;BME280;25997;50.214;19.354;2023-04-08T01:09:17;97958.31;;;2.79;62.67
40285;BME280;25997;50.214;19.354;2023-04-08T01:12:24;97966.81;;;2.76;62.58
40285;BME280;25997;50.214;19.354;2023-04-08T01:15:32;97964.88;;;2.72;62.69
40285;BME280;25997;50.214;19.354;2023-04-08T01:18:37;97968.91;;;2.67;62.78
40285;BME280;25997;50.214;19.354;2023-04-08T01:21:41;97976.34;;;2.61;62.49
40285;BME280;25997;50.214;19.354;2023-04-08T01:24:46;97970.91;;;2.56;62.87
40285;BME280;25997;50.214;19.354;2023-04-08T01:27:52;97971.47;;;2.51;62.93
40285;BME280;25997;50.214;19.354;2023-04-08T01:30:58;97969.59;;;2.48;62.96
40285;BME280;25997;50.214;19.354;2023-04-08T01:34:02;97971.28;;;2.48;62.65
40285;BME280;25997;50.214;19.354;2023-04-08T01:37:07;97974.69;;;2.47;62.97
40285;BME280;25997;50.214;19.354;2023-04-08T01:40:10;97971.03;;;2.43;62.78
40285;BME280;25997;50.214;19.354;2023-04-08T01:43:16;97976.75;;;2.38;62.15
40285;BME280;25997;50.214;19.354;2023-04-08T01:46:19;97974.47;;;2.28;62.10
40285;BME280;25997;50.214;19.354;2023-04-08T01:49:23;97978.78;;;2.13;62.11
40285;BME280;25997;50.214;19.354;2023-04-08T01:52:28;97975.91;;;2.08;62.09
40285;BME280;25997;50.214;19.354;2023-04-08T01:55:31;97974.56;;;2.00;61.93
40285;BME280;25997;50.214;19.354;2023-04-08T01:58:40;97978.41;;;1.92;61.80
40285;BME280;25997;50.214;19.354;2023-04-08T02:01:44;97982.06;;;1.81;61.97
40285;BME280;25997;50.214;19.354;2023-04-08T02:04:46;97987.69;;;1.74;62.01
40285;BME280;25997;50.214;19.354;2023-04-08T02:07:49;97986.34;;;1.66;61.90
40285;BME280;25997;50.214;19.354;2023-04-08T02:10:51;97989.56;;;1.62;61.85
40285;BME280;25997;50.214;19.354;2023-04-08T02:13:55;97988.41;;;1.57;61.93
40285;BME280;25997;50.214;19.354;2023-04-08T02:17:02;97994.19;;;1.53;62.35
40285;BME280;25997;50.214;19.354;2023-04-08T02:20:09;97991.41;;;1.50;62.06
40285;BME280;25997;50.214;19.354;2023-04-08T02:23:13;97994.97;;;1.52;62.30
40285;BME280;25997;50.214;19.354;2023-04-08T02:26:17;97990.16;;;1.58;62.43
40285;BME280;25997;50.214;19.354;2023-04-08T02:29:23;97994.75;;;1.62;62.26
40285;BME280;25997;50.214;19.354;2023-04-08T02:32:28;97996.72;;;1.66;62.46
40285;BME280;25997;50.214;19.354;2023-04-08T02:35:32;97997.75;;;1.69;62.57
40285;BME280;25997;50.214;19.354;2023-04-08T02:38:34;98005.66;;;1.71;62.22
40285;BME280;25997;50.214;19.354;2023-04-08T02:41:37;98004.03;;;1.73;62.26
40285;BME280;25997;50.214;19.354;2023-04-08T02:44:41;98003.75;;;1.68;62.31
40285;BME280;25997;50.214;19.354;2023-04-08T02:47:43;97997.69;;;1.68;62.33
40285;BME280;25997;50.214;19.354;2023-04-08T02:50:46;98004.47;;;1.66;62.55
40285;BME280;25997;50.214;19.354;2023-04-08T02:53:48;98012.22;;;1.66;62.49
40285;BME280;25997;50.214;19.354;2023-04-08T02:56:51;98003.84;;;1.70;62.53
40285;BME280;25997;50.214;19.354;2023-04-08T02:59:55;98025.59;;;1.73;62.66
40285;BME280;25997;50.214;19.354;2023-04-08T03:02:57;98023.91;;;1.74;62.57
40285;BME280;25997;50.214;19.354;2023-04-08T03:06:00;98017.25;;;1.77;62.49
40285;BME280;25997;50.214;19.354;2023-04-08T03:09:02;98019.84;;;1.77;62.45
40285;BME280;25997;50.214;19.354;2023-04-08T03:12:05;98021.53;;;1.77;62.53
40285;BME280;25997;50.214;19.354;2023-04-08T03:15:09;98027.31;;;1.73;62.39
40285;BME280;25997;50.214;19.354;2023-04-08T03:18:12;98032.31;;;1.70;62.43
40285;BME280;25997;50.214;19.354;2023-04-08T03:21:14;98032.03;;;1.65;62.55
40285;BME280;25997;50.214;19.354;2023-04-08T03:24:17;98029.38;;;1.64;62.31
40285;BME280;25997;50.214;19.354;2023-04-08T03:27:19;98033.72;;;1.65;62.51
40285;BME280;25997;50.214;19.354;2023-04-08T03:30:23;98038.31;;;1.69;62.42
40285;BME280;25997;50.214;19.354;2023-04-08T03:33:26;98038.47;;;1.72;62.47
40285;BME280;25997;50.214;19.354;2023-04-08T03:36:28;98036.16;;;1.76;62.44
40285;BME280;25997;50.214;19.354;2023-04-08T03:39:31;98031.31;;;1.82;62.35
40285;BME280;25997;50.214;19.354;2023-04-08T03:42:34;98035.81;;;1.85;62.32
40285;BME280;25997;50.214;19.354;2023-04-08T03:45:38;98031.88;;;1.91;62.44
40285;BME280;25997;50.214;19.354;2023-04-08T03:48:40;98034.66;;;1.94;62.39
40285;BME280;25997;50.214;19.354;2023-04-08T03:51:43;98044.81;;;1.91;62.14
40285;BME280;25997;50.214;19.354;2023-04-08T03:54:45;98045.91;;;1.95;62.20
40285;BME280;25997;50.214;19.354;2023-04-08T03:57:48;98048.50;;;1.95;61.91
40285;BME280;25997;50.214;19.354;2023-04-08T04:00:52;98053.00;;;1.84;61.75
40285;BME280;25997;50.214;19.354;2023-04-08T04:03:54;98059.09;;;1.70;61.87
40285;BME280;25997;50.214;19.354;2023-04-08T04:06:57;98052.44;;;1.61;61.98
40285;BME280;25997;50.214;19.354;2023-04-08T04:09:59;98049.31;;;1.52;62.06
40285;BME280;25997;50.214;19.354;2023-04-08T04:13:02;98055.72;;;1.44;62.15
40285;BME280;25997;50.214;19.354;2023-04-08T04:16:06;98059.78;;;1.40;62.23
40285;BME280;25997;50.214;19.354;2023-04-08T04:19:08;98070.06;;;1.39;62.34
40285;BME280;25997;50.214;19.354;2023-04-08T04:22:10;98067.66;;;1.42;62.23
40285;BME280;25997;50.214;19.354;2023-04-08T04:25:13;98069.56;;;1.44;62.33
40285;BME280;25997;50.214;19.354;2023-04-08T04:28:16;98064.75;;;1.50;62.30
40285;BME280;25997;50.214;19.354;2023-04-08T04:31:20;98077.88;;;1.53;62.11
40285;BME280;25997;50.214;19.354;2023-04-08T04:34:23;98080.53;;;1.55;61.86
40285;BME280;25997;50.214;19.354;2023-04-08T04:37:25;98081.63;;;1.58;61.85
40285;BME280;25997;50.214;19.354;2023-04-08T04:40:28;98086.72;;;1.57;61.51
40285;BME280;25997;50.214;19.354;2023-04-08T04:43:31;98087.31;;;1.53;61.75
40285;BME280;25997;50.214;19.354;2023-04-08T04:46:35;98087.94;;;1.49;61.59
40285;BME280;25997;50.214;19.354;2023-04-08T04:49:37;98100.47;;;1.43;61.69
40285;BME280;25997;50.214;19.354;2023-04-08T04:52:40;98099.47;;;1.41;62.12
40285;BME280;25997;50.214;19.354;2023-04-08T04:55:42;98102.78;;;1.38;62.12
40285;BME280;25997;50.214;19.354;2023-04-08T04:58:45;98092.25;;;1.35;62.35
40285;BME280;25997;50.214;19.354;2023-04-08T05:01:50;98100.03;;;1.35;62.38
40285;BME280;25997;50.214;19.354;2023-04-08T05:04:53;98104.50;;;1.38;62.63
40285;BME280;25997;50.214;19.354;2023-04-08T05:07:55;98099.41;;;1.39;62.33
40285;BME280;25997;50.214;19.354;2023-04-08T05:10:58;98105.84;;;1.46;62.32
40285;BME280;25997;50.214;19.354;2023-04-08T05:14:02;98106.75;;;1.46;62.32
40285;BME280;25997;50.214;19.354;2023-04-08T05:17:05;98111.31;;;1.50;62.33
40285;BME280;25997;50.214;19.354;2023-04-08T05:20:08;98117.53;;;1.54;62.42
40285;BME280;25997;50.214;19.354;2023-04-08T05:23:11;98123.72;;;1.56;62.48
40285;BME280;25997;50.214;19.354;2023-04-08T05:26:13;98129.00;;;1.57;62.77
40285;BME280;25997;50.214;19.354;2023-04-08T05:29:16;98125.09;;;1.64;63.06
40285;BME280;25997;50.214;19.354;2023-04-08T05:32:20;98139.47;;;1.73;62.88
40285;BME280;25997;50.214;19.354;2023-04-08T05:35:22;98132.88;;;1.78;62.87
40285;BME280;25997;50.214;19.354;2023-04-08T05:38:25;98126.59;;;1.88;62.79
40285;BME280;25997;50.214;19.354;2023-04-08T05:41:27;98135.28;;;2.03;62.67
40285;BME280;25997;50.214;19.354;2023-04-08T05:44:30;98136.88;;;2.16;62.87
40285;BME280;25997;50.214;19.354;2023-04-08T05:47:34;98142.09;;;2.30;62.58
40285;BME280;25997;50.214;19.354;2023-04-08T05:50:36;98147.63;;;2.36;62.26
40285;BME280;25997;50.214;19.354;2023-04-08T05:53:39;98149.00;;;2.44;62.58
40285;BME280;25997;50.214;19.354;2023-04-08T05:56:42;98146.41;;;2.59;62.31
40285;BME280;25997;50.214;19.354;2023-04-08T05:59:46;98149.44;;;2.81;62.80
40285;BME280;25997;50.214;19.354;2023-04-08T06:02:50;98156.03;;;3.05;62.55
40285;BME280;25997;50.214;19.354;2023-04-08T06:05:52;98151.03;;;3.08;62.05
40285;BME280;25997;50.214;19.354;2023-04-08T06:08:55;98161.88;;;3.01;61.87
40285;BME280;25997;50.214;19.354;2023-04-08T06:11:57;98169.19;;;2.94;62.13
40285;BME280;25997;50.214;19.354;2023-04-08T06:15:00;98175.03;;;2.90;62.17
40285;BME280;25997;50.214;19.354;2023-04-08T06:18:04;98180.75;;;2.99;62.63
40285;BME280;25997;50.214;19.354;2023-04-08T06:21:06;98177.88;;;3.09;62.25
40285;BME280;25997;50.214;19.354;2023-04-08T06:24:09;98174.38;;;3.08;61.82
40285;BME280;25997;50.214;19.354;2023-04-08T06:27:11;98180.38;;;3.07;61.71
40285;BME280;25997;50.214;19.354;2023-04-08T06:30:14;98188.44;;;2.97;61.85
40285;BME280;25997;50.214;19.354;2023-04-08T06:33:18;98197.63;;;3.07;61.84
40285;BME280;25997;50.214;19.354;2023-04-08T06:36:21;98200.75;;;3.16;62.21
40285;BME280;25997;50.214;19.354;2023-04-08T06:39:23;98195.34;;;3.42;62.07
40285;BME280;25997;50.214;19.354;2023-04-08T06:42:26;98193.75;;;3.60;61.98
40285;BME280;25997;50.214;19.354;2023-04-08T06:45:43;98193.88;;;3.94;62.00
40285;BME280;25997;50.214;19.354;2023-04-08T06:48:47;98203.06;;;4.03;61.61
40285;BME280;25997;50.214;19.354;2023-04-08T06:51:49;98205.09;;;4.09;61.23
40285;BME280;25997;50.214;19.354;2023-04-08T06:54:52;98208.34;;;4.21;60.92
40285;BME280;25997;50.214;19.354;2023-04-08T06:57:54;98210.53;;;4.30;60.55
40285;BME280;25997;50.214;19.354;2023-04-08T07:00:58;98210.97;;;4.37;60.74
40285;BME280;25997;50.214;19.354;2023-04-08T07:04:02;98212.06;;;4.58;60.63
40285;BME280;25997;50.214;19.354;2023-04-08T07:07:05;98211.25;;;4.59;60.18
40285;BME280;25997;50.214;19.354;2023-04-08T07:10:08;98221.19;;;4.50;59.81
40285;BME280;25997;50.214;19.354;2023-04-08T07:13:10;98208.72;;;4.45;59.26
40285;BME280;25997;50.214;19.354;2023-04-08T07:16:13;98213.13;;;4.62;59.79
40285;BME280;25997;50.214;19.354;2023-04-08T07:19:17;98223.66;;;4.65;59.59
40285;BME280;25997;50.214;19.354;2023-04-08T07:22:19;98219.28;;;4.80;59.54
40285;BME280;25997;50.214;19.354;2023-04-08T07:25:22;98214.78;;;4.93;59.34
40285;BME280;25997;50.214;19.354;2023-04-08T07:28:24;98223.28;;;5.07;58.82
40285;BME280;25997;50.214;19.354;2023-04-08T07:31:27;98225.22;;;5.11;58.51
40285;BME280;25997;50.214;19.354;2023-04-08T07:34:33;98212.63;;;5.03;57.51
40285;BME280;25997;50.214;19.354;2023-04-08T07:37:36;98220.69;;;5.07;57.93
40285;BME280;25997;50.214;19.354;2023-04-08T07:40:38;98227.63;;;5.24;58.15
40285;BME280;25997;50.214;19.354;2023-04-08T07:43:41;98221.16;;;5.34;57.81
40285;BME280;25997;50.214;19.354;2023-04-08T07:46:43;98229.19;;;5.38;57.87
40285;BME280;25997;50.214;19.354;2023-04-08T07:49:50;98225.03;;;5.24;56.71
40285;BME280;25997;50.214;19.354;2023-04-08T07:52:54;98229.84;;;5.17;57.02
40285;BME280;25997;50.214;19.354;2023-04-08T07:55:56;98233.72;;;5.25;57.35
40285;BME280;25997;50.214;19.354;2023-04-08T07:58:59;98235.59;;;5.45;56.80
40285;BME280;25997;50.214;19.354;2023-04-08T08:02:01;98233.41;;;5.72;56.96
40285;BME280;25997;50.214;19.354;2023-04-08T08:05:06;98233.41;;;5.89;56.89
40285;BME280;25997;50.214;19.354;2023-04-08T08:08:09;98236.22;;;5.94;56.14
40285;BME280;25997;50.214;19.354;2023-04-08T08:11:12;98232.69;;;6.11;55.78
40285;BME280;25997;50.214;19.354;2023-04-08T08:14:16;98233.97;;;6.01;54.91
40285;BME280;25997;50.214;19.354;2023-04-08T08:17:18;98227.59;;;5.95;55.25
40285;BME280;25997;50.214;19.354;2023-04-08T08:20:22;98227.34;;;6.08;55.62
40285;BME280;25997;50.214;19.354;2023-04-08T08:23:25;98230.72;;;6.42;55.77
40285;BME280;25997;50.214;19.354;2023-04-08T08:26:27;98225.19;;;6.36;54.55
40285;BME280;25997;50.214;19.354;2023-04-08T08:29:30;98246.91;;;6.35;55.18
40285;BME280;25997;50.214;19.354;2023-04-08T08:32:32;98246.59;;;6.67;55.04
40285;BME280;25997;50.214;19.354;2023-04-08T08:35:37;98247.25;;;7.01;54.54
40285;BME280;25997;50.214;19.354;2023-04-08T08:38:39;98260.63;;;7.09;53.15
40285;BME280;25997;50.214;19.354;2023-04-08T08:41:41;98259.09;;;7.14;52.29
40285;BME280;25997;50.214;19.354;2023-04-08T08:44:44;98249.63;;;7.57;52.69
40285;BME280;25997;50.214;19.354;2023-04-08T08:47:46;98252.06;;;7.73;52.15
40285;BME280;25997;50.214;19.354;2023-04-08T08:50:50;98256.13;;;7.88;52.41
40285;BME280;25997;50.214;19.354;2023-04-08T08:53:53;98261.47;;;7.91;51.86
40285;BME280;25997;50.214;19.354;2023-04-08T08:56:55;98269.50;;;7.95;50.47
40285;BME280;25997;50.214;19.354;2023-04-08T08:59:58;98255.56;;;7.74;51.11
40285;BME280;25997;50.214;19.354;2023-04-08T09:03:14;98266.63;;;8.11;51.00
40285;BME280;25997;50.214;19.354;2023-04-08T09:06:18;98268.75;;;8.42;51.04
40285;BME280;25997;50.214;19.354;2023-04-08T09:09:22;98270.84;;;8.76;50.42
40285;BME280;25997;50.214;19.354;2023-04-08T09:12:27;98269.44;;;8.84;49.33
40285;BME280;25997;50.214;19.354;2023-04-08T09:15:31;98268.78;;;8.89;49.00
40285;BME280;25997;50.214;19.354;2023-04-08T09:18:35;98271.31;;;8.88;48.77
40285;BME280;25997;50.214;19.354;2023-04-08T09:21:39;98280.19;;;8.91;48.72
40285;BME280;25997;50.214;19.354;2023-04-08T09:24:42;98280.56;;;9.25;48.25
40285;BME280;25997;50.214;19.354;2023-04-08T09:27:44;98288.44;;;9.51;48.46
40285;BME280;25997;50.214;19.354;2023-04-08T09:30:47;98284.75;;;9.46;48.54
40285;BME280;25997;50.214;19.354;2023-04-08T09:33:52;98289.25;;;9.24;48.24
40285;BME280;25997;50.214;19.354;2023-04-08T09:36:56;98289.97;;;9.20;48.96
40285;BME280;25997;50.214;19.354;2023-04-08T09:39:59;98297.91;;;9.22;48.49
40285;BME280;25997;50.214;19.354;2023-04-08T09:43:04;98300.69;;;9.03;48.30
40285;BME280;25997;50.214;19.354;2023-04-08T09:46:07;98299.97;;;9.07;47.31
40285;BME280;25997;50.214;19.354;2023-04-08T09:49:17;98310.63;;;9.11;47.20
40285;BME280;25997;50.214;19.354;2023-04-08T09:52:24;98307.03;;;9.33;47.46
40285;BME280;25997;50.214;19.354;2023-04-08T09:55:35;98306.31;;;9.13;46.84
40285;BME280;25997;50.214;19.354;2023-04-08T09:58:40;98304.03;;;9.22;48.04
40285;BME280;25997;50.214;19.354;2023-04-08T10:01:46;98304.97;;;9.24;48.10
40285;BME280;25997;50.214;19.354;2023-04-08T10:04:51;98306.88;;;9.28;47.94
40285;BME280;25997;50.214;19.354;2023-04-08T10:07:57;98310.13;;;9.72;48.74
40285;BME280;25997;50.214;19.354;2023-04-08T10:11:01;98305.78;;;10.52;48.39
40285;BME280;25997;50.214;19.354;2023-04-08T10:14:03;98305.38;;;10.98;46.39
40285;BME280;25997;50.214;19.354;2023-04-08T10:17:25;98305.47;;;11.31;43.05
40285;BME280;25997;50.214;19.354;2023-04-08T10:20:41;98314.19;;;11.30;43.14
40285;BME280;25997;50.214;19.354;2023-04-08T10:23:56;98311.28;;;11.19;41.01
40285;BME280;25997;50.214;19.354;2023-04-08T10:27:01;98306.00;;;11.51;44.42
40285;BME280;25997;50.214;19.354;2023-04-08T10:30:38;98315.72;;;11.53;38.02
40285;BME280;25997;50.214;19.354;2023-04-08T10:33:40;98303.88;;;11.70;43.65
40285;BME280;25997;50.214;19.354;2023-04-08T10:36:44;98306.13;;;11.55;43.30
40285;BME280;25997;50.214;19.354;2023-04-08T10:39:53;98316.09;;;11.04;42.06
40285;BME280;25997;50.214;19.354;2023-04-08T10:42:55;98317.72;;;10.71;43.91
40285;BME280;25997;50.214;19.354;2023-04-08T10:45:58;98309.44;;;10.57;44.34
40285;BME280;25997;50.214;19.354;2023-04-08T10:49:05;98314.81;;;10.34;44.89
40285;BME280;25997;50.214;19.354;2023-04-08T10:52:08;98308.09;;;10.15;44.65
40285;BME280;25997;50.214;19.354;2023-04-08T10:55:13;98318.75;;;9.94;44.59
40285;BME280;25997;50.214;19.354;2023-04-08T10:58:16;98318.72;;;9.68;44.73
40285;BME280;25997;50.214;19.354;2023-04-08T11:01:19;98316.50;;;9.53;45.05
40285;BME280;25997;50.214;19.354;2023-04-08T11:04:21;98323.59;;;9.32;45.07
40285;BME280;25997;50.214;19.354;2023-04-08T11:07:24;98308.13;;;9.14;45.77
40285;BME280;25997;50.214;19.354;2023-04-08T11:10:28;98309.22;;;9.21;45.96
40285;BME280;25997;50.214;19.354;2023-04-08T11:13:32;98306.44;;;9.16;45.88
40285;BME280;25997;50.214;19.354;2023-04-08T11:16:36;98318.16;;;9.26;45.78
40285;BME280;25997;50.214;19.354;2023-04-08T11:19:39;98320.16;;;9.33;46.14
40285;BME280;25997;50.214;19.354;2023-04-08T11:22:42;98322.78;;;9.33;45.66
40285;BME280;25997;50.214;19.354;2023-04-08T11:25:47;98309.00;;;9.15;45.67
40285;BME280;25997;50.214;19.354;2023-04-08T11:28:49;98309.59;;;9.06;46.15
40285;BME280;25997;50.214;19.354;2023-04-08T11:31:52;98305.38;;;9.11;45.93
40285;BME280;25997;50.214;19.354;2023-04-08T11:34:55;98309.66;;;9.09;45.37
40285;BME280;25997;50.214;19.354;2023-04-08T11:37:57;98312.47;;;8.90;45.70
40285;BME280;25997;50.214;19.354;2023-04-08T11:41:01;98321.44;;;8.51;45.81
40285;BME280;25997;50.214;19.354;2023-04-08T11:44:04;98318.13;;;8.34;47.14
40285;BME280;25997;50.214;19.354;2023-04-08T11:47:08;98324.84;;;8.28;47.22
40285;BME280;25997;50.214;19.354;2023-04-08T11:50:10;98321.16;;;8.23;47.38
40285;BME280;25997;50.214;19.354;2023-04-08T11:53:16;98317.38;;;8.37;47.46
40285;BME280;25997;50.214;19.354;2023-04-08T11:56:22;98320.97;;;8.40;47.33
40285;BME280;25997;50.214;19.354;2023-04-08T11:59:25;98315.50;;;8.56;47.32
40285;BME280;25997;50.214;19.354;2023-04-08T12:02:28;98319.44;;;8.68;47.39
40285;BME280;25997;50.214;19.354;2023-04-08T12:05:30;98311.44;;;8.65;47.20
40285;BME280;25997;50.214;19.354;2023-04-08T12:08:33;98321.34;;;8.49;47.24
40285;BME280;25997;50.214;19.354;2023-04-08T12:11:37;98307.72;;;8.58;47.66
40285;BME280;25997;50.214;19.354;2023-04-08T12:14:39;98318.44;;;8.42;47.65
40285;BME280;25997;50.214;19.354;2023-04-08T12:17:42;98318.72;;;8.27;47.65
40285;BME280;25997;50.214;19.354;2023-04-08T12:20:44;98317.97;;;8.30;47.92
40285;BME280;25997;50.214;19.354;2023-04-08T12:23:47;98329.84;;;8.22;48.04
40285;BME280;25997;50.214;19.354;2023-04-08T12:26:51;98323.91;;;8.26;48.33
40285;BME280;25997;50.214;19.354;2023-04-08T12:29:54;98328.91;;;8.20;48.42
40285;BME280;25997;50.214;19.354;2023-04-08T12:32:56;98334.91;;;8.17;48.67
40285;BME280;25997;50.214;19.354;2023-04-08T12:35:58;98334.63;;;8.11;49.01
40285;BME280;25997;50.214;19.354;2023-04-08T12:39:01;98325.28;;;7.96;49.12
40285;BME280;25997;50.214;19.354;2023-04-08T12:42:05;98323.94;;;7.84;49.44
40285;BME280;25997;50.214;19.354;2023-04-08T12:45:08;98328.38;;;7.86;49.59
40285;BME280;25997;50.214;19.354;2023-04-08T12:48:10;98327.16;;;7.77;49.64
40285;BME280;25997;50.214;19.354;2023-04-08T12:51:13;98324.31;;;7.52;50.04
40285;BME280;25997;50.214;19.354;2023-04-08T12:54:15;98329.53;;;7.52;50.05
40285;BME280;25997;50.214;19.354;2023-04-08T12:57:19;98327.63;;;7.48;50.34
40285;BME280;25997;50.214;19.354;2023-04-08T13:00:22;98329.28;;;7.46;50.55
40285;BME280;25997;50.214;19.354;2023-04-08T13:03:24;98332.78;;;7.47;50.48
40285;BME280;25997;50.214;19.354;2023-04-08T13:06:30;98331.72;;;7.42;50.75
40285;BME280;25997;50.214;19.354;2023-04-08T13:09:33;98334.50;;;7.46;50.78
40285;BME280;25997;50.214;19.354;2023-04-08T13:12:37;98332.72;;;7.45;51.01
40285;BME280;25997;50.214;19.354;2023-04-08T13:15:40;98328.13;;;7.40;51.17
40285;BME280;25997;50.214;19.354;2023-04-08T13:18:43;98338.47;;;7.57;51.19
40285;BME280;25997;50.214;19.354;2023-04-08T13:21:46;98329.78;;;7.77;50.93
40285;BME280;25997;50.214;19.354;2023-04-08T13:24:49;98328.56;;;7.69;51.11
40285;BME280;25997;50.214;19.354;2023-04-08T13:27:53;98326.16;;;7.55;51.28
40285;BME280;25997;50.214;19.354;2023-04-08T13:30:56;98320.75;;;7.50;51.18
40285;BME280;25997;50.214;19.354;2023-04-08T13:33:58;98318.56;;;7.61;51.48
40285;BME280;25997;50.214;19.354;2023-04-08T13:37:01;98317.81;;;7.63;51.41
40285;BME280;25997;50.214;19.354;2023-04-08T13:40:05;98319.72;;;7.66;51.48
40285;BME280;25997;50.214;19.354;2023-04-08T13:43:09;98319.53;;;7.63;51.55
40285;BME280;25997;50.214;19.354;2023-04-08T13:46:12;98323.81;;;7.61;51.66
40285;BME280;25997;50.214;19.354;2023-04-08T13:49:15;98328.69;;;7.72;51.41
40285;BME280;25997;50.214;19.354;2023-04-08T13:52:18;98319.13;;;7.73;51.63
40285;BME280;25997;50.214;19.354;2023-04-08T13:55:20;98314.34;;;7.64;51.62
40285;BME280;25997;50.214;19.354;2023-04-08T13:58:24;98320.66;;;7.68;51.98
40285;BME280;25997;50.214;19.354;2023-04-08T14:01:27;98322.22;;;7.85;51.77
40285;BME280;25997;50.214;19.354;2023-04-08T14:04:30;98317.44;;;7.96;51.60
40285;BME280;25997;50.214;19.354;2023-04-08T14:07:33;98304.72;;;8.05;51.72
40285;BME280;25997;50.214;19.354;2023-04-08T14:10:36;98318.50;;;8.21;51.63
40285;BME280;25997;50.214;19.354;2023-04-08T14:13:39;98310.25;;;8.33;51.54
40285;BME280;25997;50.214;19.354;2023-04-08T14:16:42;98307.81;;;8.37;51.54
40285;BME280;25997;50.214;19.354;2023-04-08T14:19:45;98307.31;;;8.47;51.29
40285;BME280;25997;50.214;19.354;2023-04-08T14:22:47;98310.69;;;8.45;51.06
40285;BME280;25997;50.214;19.354;2023-04-08T14:25:53;98315.16;;;8.47;51.21
40285;BME280;25997;50.214;19.354;2023-04-08T14:29:03;98310.28;;;8.56;51.17
40285;BME280;25997;50.214;19.354;2023-04-08T14:32:06;98303.69;;;8.66;51.16
40285;BME280;25997;50.214;19.354;2023-04-08T14:35:09;98308.00;;;8.66;51.31
40285;BME280;25997;50.214;19.354;2023-04-08T14:38:11;98308.66;;;8.60;51.09
40285;BME280;25997;50.214;19.354;2023-04-08T14:41:14;98304.28;;;8.59;50.99
40285;BME280;25997;50.214;19.354;2023-04-08T14:44:18;98312.94;;;8.58;51.00
40285;BME280;25997;50.214;19.354;2023-04-08T14:47:21;98310.28;;;8.56;51.17
40285;BME280;25997;50.214;19.354;2023-04-08T14:50:23;98314.94;;;8.41;50.91
40285;BME280;25997;50.214;19.354;2023-04-08T14:53:26;98319.31;;;8.42;51.19
40285;BME280;25997;50.214;19.354;2023-04-08T14:56:29;98308.56;;;8.57;50.92
40285;BME280;25997;50.214;19.354;2023-04-08T14:59:34;98317.06;;;8.51;50.58
40285;BME280;25997;50.214;19.354;2023-04-08T15:02:37;98320.56;;;8.52;50.75
40285;BME280;25997;50.214;19.354;2023-04-08T15:05:40;98327.78;;;8.58;50.56
40285;BME280;25997;50.214;19.354;2023-04-08T15:08:45;98327.69;;;8.56;50.68
40285;BME280;25997;50.214;19.354;2023-04-08T15:11:47;98323.50;;;8.60;50.59
40285;BME280;25997;50.214;19.354;2023-04-08T15:14:51;98322.41;;;8.54;50.81
40285;BME280;25997;50.214;19.354;2023-04-08T15:17:53;98320.97;;;8.63;50.75
40285;BME280;25997;50.214;19.354;2023-04-08T15:20:56;98316.25;;;8.76;50.78
40285;BME280;25997;50.214;19.354;2023-04-08T15:23:59;98309.25;;;8.97;50.48
40285;BME280;25997;50.214;19.354;2023-04-08T15:27:01;98316.41;;;9.03;50.23
40285;BME280;25997;50.214;19.354;2023-04-08T15:30:06;98315.25;;;8.95;50.17
40285;BME280;25997;50.214;19.354;2023-04-08T15:33:09;98314.41;;;8.96;50.12
40285;BME280;25997;50.214;19.354;2023-04-08T15:36:11;98320.38;;;8.92;50.03
40285;BME280;25997;50.214;19.354;2023-04-08T15:39:19;98314.69;;;8.58;50.26
40285;BME280;25997;50.214;19.354;2023-04-08T15:42:21;98315.16;;;8.47;50.56
40285;BME280;25997;50.214;19.354;2023-04-08T15:45:25;98318.38;;;8.40;50.45
40285;BME280;25997;50.214;19.354;2023-04-08T15:48:28;98320.56;;;8.30;50.67
40285;BME280;25997;50.214;19.354;2023-04-08T15:51:32;98328.25;;;8.25;50.93
40285;BME280;25997;50.214;19.354;2023-04-08T15:54:35;98327.13;;;8.41;50.81
40285;BME280;25997;50.214;19.354;2023-04-08T15:57:37;98321.44;;;8.51;50.56
40285;BME280;25997;50.214;19.354;2023-04-08T16:00:41;98326.22;;;8.63;50.57
40285;BME280;25997;50.214;19.354;2023-04-08T16:03:44;98325.44;;;8.65;50.46
40285;BME280;25997;50.214;19.354;2023-04-08T16:06:46;98330.22;;;8.53;50.46
40285;BME280;25997;50.214;19.354;2023-04-08T16:09:49;98331.34;;;8.60;50.24
40285;BME280;25997;50.214;19.354;2023-04-08T16:12:51;98338.16;;;8.56;50.24